AfoVOS II — SV3346 — position and weather

sailwx.info

Track history (hours):
 
Tides and Currents Weather Stations Pressure Air Temp Water Temp Dewpoint Dewpoint Depression Visibility Wind Speed Wind Dir Waves Ship Positions

AfoVOS II

Last reported at 2018-Aug-19 15:00 UTC. Time now 2018-Aug-19 15:17 UTC.
Position N 37°06' E 025°22'.

Length 28 m; draft 3.5 m.

Type: Fishing. MMSI: 237699000.

Date/timePositionNaut miles runAvg speedWind from/ knotsBaromVisibWave heightAir tempDewpointWater temp
2018-Aug-19 15:00N 37°06' E 025°22'0 0.0
2018-Aug-19 14:31N 37°06' E 025°22'0 0.0
2018-Aug-19 14:00N 37°06' E 025°22'0 0.0
2018-Aug-19 13:30N 37°06' E 025°22'0 0.0
2018-Aug-19 13:00N 37°06' E 025°22'0 0.0
2018-Aug-19 12:30N 37°06' E 025°22'0 0.0
2018-Aug-19 11:59N 37°06' E 025°22'0 0.0
2018-Aug-19 11:30N 37°06' E 025°22'0 0.0
2018-Aug-19 11:00N 37°06' E 025°22'0 0.0
2018-Aug-19 10:30N 37°06' E 025°22'0 0.0
2018-Aug-19 10:00N 37°06' E 025°22'0 0.0
2018-Aug-19 09:30N 37°06' E 025°22'0 0.0
2018-Aug-19 09:00N 37°06' E 025°22'0 0.0
2018-Aug-19 08:30N 37°06' E 025°22'0 0.0
2018-Aug-19 08:00N 37°06' E 025°22'0 0.0
2018-Aug-19 07:30N 37°06' E 025°22'0 0.0
2018-Aug-19 07:00N 37°06' E 025°22'0 0.0
2018-Aug-19 06:30N 37°06' E 025°22'0 0.0
2018-Aug-19 05:59N 37°06' E 025°22'0 0.0
2018-Aug-19 05:30N 37°06' E 025°22'0 0.3
2018-Aug-19 05:01N 37°06' E 025°22'0 0.0
2018-Aug-19 04:30N 37°06' E 025°22'0 0.0
2018-Aug-19 04:00N 37°06' E 025°22'0 0.0
2018-Aug-19 03:30N 37°06' E 025°22'0 0.0
2018-Aug-19 03:00N 37°06' E 025°22'0 0.0
2018-Aug-19 02:30N 37°06' E 025°22'0 0.0
2018-Aug-19 02:00N 37°06' E 025°22'0 0.0
2018-Aug-19 01:30N 37°06' E 025°22'0 0.0
2018-Aug-19 01:00N 37°06' E 025°22'0 0.0
2018-Aug-19 00:30N 37°06' E 025°22'0 0.0
2018-Aug-19 00:00N 37°06' E 025°22'0 0.0
2018-Aug-18 23:30N 37°06' E 025°22'0 0.0
2018-Aug-18 23:00N 37°06' E 025°22'0 0.0
2018-Aug-18 22:30N 37°06' E 025°22'0 0.0
2018-Aug-18 22:00N 37°06' E 025°22'0 0.0
2018-Aug-18 21:30N 37°06' E 025°22'0 0.0
2018-Aug-18 21:00N 37°06' E 025°22'0 0.0
2018-Aug-18 20:30N 37°06' E 025°22'0 0.0
2018-Aug-18 20:00N 37°06' E 025°22'0 0.0
2018-Aug-18 19:30N 37°06' E 025°22'0 0.0
2018-Aug-18 19:00N 37°06' E 025°22'4 8.8
2018-Aug-18 18:30N 37°11' E 025°21'5 9.2
2018-Aug-18 18:00N 37°15' E 025°21'1 1.6
2018-Aug-18 17:30N 37°16' E 025°22'1 2.8
2018-Aug-18 17:00N 37°17' E 025°23'1 2.7
2018-Aug-18 16:30N 37°18' E 025°25'1 2.7
2018-Aug-18 16:00N 37°18' E 025°26'1 2.7
2018-Aug-18 15:30N 37°19' E 025°28'1 2.7
2018-Aug-18 15:00N 37°19' E 025°29'1 2.7
2018-Aug-18 14:30N 37°19' E 025°31'5 9.2
2018-Aug-18 14:00N 37°19' E 025°37'510.7
2018-Aug-18 13:30N 37°19' E 025°43'2 4.8
2018-Aug-18 13:00N 37°19' E 025°46'0 0.8
2018-Aug-18 12:30N 37°19' E 025°46'1 2.9
2018-Aug-18 12:00N 37°20' E 025°46'1 2.9
2018-Aug-18 11:30N 37°22' E 025°45'2 2.9
2018-Aug-18 10:58N 37°23' E 025°44'2 2.8
2018-Aug-18 10:21N 37°25' E 025°43'3 2.6
2018-Aug-18 09:01N 37°28' E 025°44'0 3.1
2018-Aug-18 09:00N 37°28' E 025°44'1 2.8
2018-Aug-18 08:30N 37°28' E 025°46'2 4.2
2018-Aug-18 08:01N 37°26' E 025°48'1 1.9
2018-Aug-18 07:30N 37°27' E 025°49'2 2.9
2018-Aug-18 06:59N 37°27' E 025°47'2 2.9
2018-Aug-18 06:14N 37°28' E 025°44'2 2.6
2018-Aug-18 05:32N 37°26' E 025°43'0 2.9
2018-Aug-18 05:30N 37°26' E 025°43'1 3.0
2018-Aug-18 05:00N 37°25' E 025°44'2 2.9
2018-Aug-18 04:26N 37°23' E 025°45'2 2.8
2018-Aug-18 03:54N 37°22' E 025°46'1 2.9
2018-Aug-18 03:30N 37°21' E 025°47'2 3.8
2018-Aug-18 03:01N 37°20' E 025°48'4 8.2
2018-Aug-18 02:30N 37°17' E 025°44'5 8.9
2018-Aug-18 02:00N 37°15' E 025°39'8 9.3
2018-Aug-18 01:10N 37°12' E 025°30'1 9.1
2018-Aug-18 01:00N 37°12' E 025°28'5 9.4
2018-Aug-18 00:29N 37°08' E 025°24'2 4.7
2018-Aug-18 00:00N 37°06' E 025°22'0 0.0
2018-Aug-17 23:30N 37°06' E 025°22'0 0.0
2018-Aug-17 23:00N 37°06' E 025°22'0 0.0
2018-Aug-17 22:30N 37°06' E 025°22'0 0.0
2018-Aug-17 22:00N 37°06' E 025°22'0 0.0
2018-Aug-17 21:30N 37°06' E 025°22'0 0.0
2018-Aug-17 21:00N 37°06' E 025°22'0 0.0
2018-Aug-17 20:30N 37°06' E 025°22'0 0.0
2018-Aug-17 20:00N 37°06' E 025°22'0 0.0
2018-Aug-17 19:30N 37°06' E 025°22'0 0.0
2018-Aug-17 18:58N 37°06' E 025°22'0 0.0
2018-Aug-17 18:30N 37°06' E 025°22'0 0.0
2018-Aug-17 18:00N 37°06' E 025°22'0 0.0
2018-Aug-17 17:30N 37°06' E 025°22'0 0.0
2018-Aug-17 17:00N 37°06' E 025°22'0 0.0
2018-Aug-17 16:30N 37°06' E 025°22'0 0.0
2018-Aug-17 16:00N 37°06' E 025°22'0 0.0
2018-Aug-17 15:30N 37°06' E 025°22'0 0.0
2018-Aug-17 15:00N 37°06' E 025°22'0 0.0
2018-Aug-17 14:31N 37°06' E 025°22'3 2.6
2018-Aug-17 13:30N 37°09' E 025°24'5 9.8
2018-Aug-17 13:00N 37°12' E 025°28'510.4
2018-Aug-17 12:30N 37°16' E 025°33'12 4.8
2018-Aug-17 10:06N 37°25' E 025°42'0 2.9
2018-Aug-17 10:00N 37°25' E 025°42'3 2.7
2018-Aug-17 08:51N 37°28' E 025°44'2 2.8
2018-Aug-17 08:18N 37°28' E 025°46'1 3.2
2018-Aug-17 07:55N 37°27' E 025°47'1 2.9
2018-Aug-17 07:31N 37°26' E 025°46'0 0.9
2018-Aug-17 06:58N 37°26' E 025°46'2 2.9
2018-Aug-17 06:13N 37°28' E 025°44'4 2.4
2018-Aug-17 04:36N 37°24' E 025°45'0 2.9
2018-Aug-17 04:26N 37°23' E 025°45'1 3.0
2018-Aug-17 04:00N 37°23' E 025°46'1 2.9
2018-Aug-17 03:30N 37°21' E 025°47'2 3.5
2018-Aug-17 03:00N 37°20' E 025°48'4 7.5
2018-Aug-17 02:30N 37°19' E 025°43'6 9.4
2018-Aug-17 01:55N 37°18' E 025°36'4 9.5
2018-Aug-17 01:30N 37°18' E 025°32'2 4.3
2018-Aug-17 01:00N 37°18' E 025°29'1 2.9
2018-Aug-17 00:30N 37°18' E 025°27'1 2.9
2018-Aug-17 00:00N 37°18' E 025°25'1 2.8
2018-Aug-16 23:30N 37°17' E 025°24'1 2.9
2018-Aug-16 23:00N 37°17' E 025°22'1 1.7
2018-Aug-16 22:30N 37°17' E 025°21'1 2.7
2018-Aug-16 22:00N 37°18' E 025°22'1 2.9
2018-Aug-16 21:30N 37°18' E 025°24'1 2.9
2018-Aug-16 21:01N 37°19' E 025°26'1 2.9
2018-Aug-16 20:30N 37°19' E 025°27'1 2.7
2018-Aug-16 20:01N 37°19' E 025°29'1 2.8
2018-Aug-16 19:30N 37°19' E 025°31'4 8.1
2018-Aug-16 19:00N 37°21' E 025°35'610.7
2018-Aug-16 18:24N 37°25' E 025°41'2 1.3
2018-Aug-16 16:27N 37°24' E 025°44'1 2.7
2018-Aug-16 15:59N 37°23' E 025°45'1 2.7
2018-Aug-16 15:30N 37°22' E 025°46'1 2.8
2018-Aug-16 15:00N 37°21' E 025°47'1 2.7
2018-Aug-16 14:30N 37°20' E 025°48'1 2.7
2018-Aug-16 14:00N 37°19' E 025°49'1 2.8
2018-Aug-16 13:30N 37°18' E 025°47'1 1.1
2018-Aug-16 13:00N 37°19' E 025°47'1 2.9
2018-Aug-16 12:30N 37°20' E 025°46'1 2.9
2018-Aug-16 12:00N 37°21' E 025°45'2 2.8
2018-Aug-16 11:28N 37°23' E 025°44'3 2.9
2018-Aug-16 10:31N 37°25' E 025°42'0 2.7
2018-Aug-16 10:30N 37°25' E 025°42'3 2.7
2018-Aug-16 09:21N 37°28' E 025°44'2 2.8
2018-Aug-16 08:44N 37°27' E 025°46'1 2.8
2018-Aug-16 08:28N 37°27' E 025°46'1 2.4
2018-Aug-16 07:59N 37°26' E 025°47'1 1.5
2018-Aug-16 07:30N 37°26' E 025°46'0 0.9
2018-Aug-16 07:00N 37°26' E 025°46'2 2.8
2018-Aug-16 06:19N 37°27' E 025°44'2 2.3
2018-Aug-16 05:21N 37°25' E 025°43'1 2.9
2018-Aug-16 04:56N 37°24' E 025°44'1 2.8
2018-Aug-16 04:30N 37°23' E 025°45'1 2.8
2018-Aug-16 04:00N 37°22' E 025°46'1 2.8
2018-Aug-16 03:30N 37°21' E 025°47'2 3.1
2018-Aug-16 03:00N 37°20' E 025°48'1 1.3
2018-Aug-16 02:30N 37°20' E 025°47'1 2.3
2018-Aug-16 02:00N 37°19' E 025°48'2 3.8
2018-Aug-16 01:30N 37°18' E 025°46'3 5.7
2018-Aug-16 01:00N 37°19' E 025°43'10 5.5
2018-Aug-15 23:15N 37°18' E 025°31'0 1.0
2018-Aug-15 23:00N 37°19' E 025°31'1 2.8
2018-Aug-15 22:30N 37°18' E 025°29'1 2.8
2018-Aug-15 22:00N 37°18' E 025°28'1 2.8
2018-Aug-15 21:30N 37°17' E 025°27'1 2.8
2018-Aug-15 21:00N 37°16' E 025°25'1 2.8
2018-Aug-15 20:31N 37°16' E 025°23'1 2.8
2018-Aug-15 20:00N 37°15' E 025°22'4 8.4
2018-Aug-15 19:30N 37°11' E 025°22'5 9.0
2018-Aug-15 19:00N 37°06' E 025°22'0 0.3
2018-Aug-15 18:30N 37°06' E 025°22'0 0.0
2018-Aug-15 18:00N 37°06' E 025°22'0 0.0
2018-Aug-15 17:30N 37°06' E 025°22'0 0.0
2018-Aug-15 17:00N 37°06' E 025°22'0 0.0
2018-Aug-15 16:30N 37°06' E 025°22'0 0.0
2018-Aug-15 16:00N 37°06' E 025°22'0 0.0
2018-Aug-15 15:30N 37°06' E 025°22'0 0.2
2018-Aug-15 15:00N 37°06' E 025°22'0 0.1
2018-Aug-15 14:30N 37°06' E 025°22'0 0.0
2018-Aug-15 14:00N 37°06' E 025°22'0 0.0
2018-Aug-15 13:30N 37°06' E 025°22'0 0.0
2018-Aug-15 13:00N 37°06' E 025°22'0 0.0
2018-Aug-15 12:30N 37°06' E 025°22'0 0.0
2018-Aug-15 12:00N 37°06' E 025°22'0 0.0
2018-Aug-15 11:30N 37°06' E 025°22'0 0.0
2018-Aug-15 11:00N 37°06' E 025°22'0 0.0
2018-Aug-15 10:29N 37°06' E 025°22'0 0.0
2018-Aug-15 10:00N 37°06' E 025°22'0 0.0
2018-Aug-15 09:30N 37°06' E 025°22'0 0.0
2018-Aug-15 09:00N 37°06' E 025°22'0 0.0
2018-Aug-15 08:30N 37°06' E 025°22'0 0.0
2018-Aug-15 08:00N 37°06' E 025°22'0 0.0
2018-Aug-15 07:30N 37°06' E 025°22'0 0.0
2018-Aug-15 07:00N 37°06' E 025°22'0 0.0
2018-Aug-15 06:29N 37°06' E 025°22'0 0.0
2018-Aug-15 06:00N 37°06' E 025°22'0 0.0
2018-Aug-15 05:30N 37°06' E 025°22'0 0.0
2018-Aug-15 05:00N 37°06' E 025°22'0 0.0
2018-Aug-15 04:30N 37°06' E 025°22'0 0.0
2018-Aug-15 04:00N 37°06' E 025°22'0 0.0
2018-Aug-15 03:30N 37°06' E 025°22'0 0.0
2018-Aug-15 03:00N 37°06' E 025°22'  
Track history (hours):
 
Tides and Currents Weather Stations Pressure Air Temp Water Temp Dewpoint Dewpoint Depression Visibility Wind Speed Wind Dir Waves Ship Positions

AfoVOS II

Last reported at 2018-Aug-19 15:00 UTC. Time now 2018-Aug-19 15:17 UTC.
Position N 37°06' E 025°22'.

Length 28 m; draft 3.5 m.

Type: Fishing. MMSI: 237699000.

Date/timePositionNaut miles runAvg speedWind from/ knotsBaromVisibWave heightAir tempDewpointWater temp
2018-Aug-19 15:00N 37°06' E 025°22'0 0.0
2018-Aug-19 14:31N 37°06' E 025°22'0 0.0
2018-Aug-19 14:00N 37°06' E 025°22'0 0.0
2018-Aug-19 13:30N 37°06' E 025°22'0 0.0
2018-Aug-19 13:00N 37°06' E 025°22'0 0.0
2018-Aug-19 12:30N 37°06' E 025°22'0 0.0
2018-Aug-19 11:59N 37°06' E 025°22'0 0.0
2018-Aug-19 11:30N 37°06' E 025°22'0 0.0
2018-Aug-19 11:00N 37°06' E 025°22'0 0.0
2018-Aug-19 10:30N 37°06' E 025°22'0 0.0
2018-Aug-19 10:00N 37°06' E 025°22'0 0.0
2018-Aug-19 09:30N 37°06' E 025°22'0 0.0
2018-Aug-19 09:00N 37°06' E 025°22'0 0.0
2018-Aug-19 08:30N 37°06' E 025°22'0 0.0
2018-Aug-19 08:00N 37°06' E 025°22'0 0.0
2018-Aug-19 07:30N 37°06' E 025°22'0 0.0
2018-Aug-19 07:00N 37°06' E 025°22'0 0.0
2018-Aug-19 06:30N 37°06' E 025°22'0 0.0
2018-Aug-19 05:59N 37°06' E 025°22'0 0.0
2018-Aug-19 05:30N 37°06' E 025°22'0 0.3
2018-Aug-19 05:01N 37°06' E 025°22'0 0.0
2018-Aug-19 04:30N 37°06' E 025°22'0 0.0
2018-Aug-19 04:00N 37°06' E 025°22'0 0.0
2018-Aug-19 03:30N 37°06' E 025°22'0 0.0
2018-Aug-19 03:00N 37°06' E 025°22'0 0.0
2018-Aug-19 02:30N 37°06' E 025°22'0 0.0
2018-Aug-19 02:00N 37°06' E 025°22'0 0.0
2018-Aug-19 01:30N 37°06' E 025°22'0 0.0
2018-Aug-19 01:00N 37°06' E 025°22'0 0.0
2018-Aug-19 00:30N 37°06' E 025°22'0 0.0
2018-Aug-19 00:00N 37°06' E 025°22'0 0.0
2018-Aug-18 23:30N 37°06' E 025°22'0 0.0
2018-Aug-18 23:00N 37°06' E 025°22'0 0.0
2018-Aug-18 22:30N 37°06' E 025°22'0 0.0
2018-Aug-18 22:00N 37°06' E 025°22'0 0.0
2018-Aug-18 21:30N 37°06' E 025°22'0 0.0
2018-Aug-18 21:00N 37°06' E 025°22'0 0.0
2018-Aug-18 20:30N 37°06' E 025°22'0 0.0
2018-Aug-18 20:00N 37°06' E 025°22'0 0.0
2018-Aug-18 19:30N 37°06' E 025°22'0 0.0
2018-Aug-18 19:00N 37°06' E 025°22'4 8.8
2018-Aug-18 18:30N 37°11' E 025°21'5 9.2
2018-Aug-18 18:00N 37°15' E 025°21'1 1.6
2018-Aug-18 17:30N 37°16' E 025°22'1 2.8
2018-Aug-18 17:00N 37°17' E 025°23'1 2.7
2018-Aug-18 16:30N 37°18' E 025°25'1 2.7
2018-Aug-18 16:00N 37°18' E 025°26'1 2.7
2018-Aug-18 15:30N 37°19' E 025°28'1 2.7
2018-Aug-18 15:00N 37°19' E 025°29'1 2.7
2018-Aug-18 14:30N 37°19' E 025°31'5 9.2
2018-Aug-18 14:00N 37°19' E 025°37'510.7
2018-Aug-18 13:30N 37°19' E 025°43'2 4.8
2018-Aug-18 13:00N 37°19' E 025°46'0 0.8
2018-Aug-18 12:30N 37°19' E 025°46'1 2.9
2018-Aug-18 12:00N 37°20' E 025°46'1 2.9
2018-Aug-18 11:30N 37°22' E 025°45'2 2.9
2018-Aug-18 10:58N 37°23' E 025°44'2 2.8
2018-Aug-18 10:21N 37°25' E 025°43'3 2.6
2018-Aug-18 09:01N 37°28' E 025°44'0 3.1
2018-Aug-18 09:00N 37°28' E 025°44'1 2.8
2018-Aug-18 08:30N 37°28' E 025°46'2 4.2
2018-Aug-18 08:01N 37°26' E 025°48'1 1.9
2018-Aug-18 07:30N 37°27' E 025°49'2 2.9
2018-Aug-18 06:59N 37°27' E 025°47'2 2.9
2018-Aug-18 06:14N 37°28' E 025°44'2 2.6
2018-Aug-18 05:32N 37°26' E 025°43'0 2.9
2018-Aug-18 05:30N 37°26' E 025°43'1 3.0
2018-Aug-18 05:00N 37°25' E 025°44'2 2.9
2018-Aug-18 04:26N 37°23' E 025°45'2 2.8
2018-Aug-18 03:54N 37°22' E 025°46'1 2.9
2018-Aug-18 03:30N 37°21' E 025°47'2 3.8
2018-Aug-18 03:01N 37°20' E 025°48'4 8.2
2018-Aug-18 02:30N 37°17' E 025°44'5 8.9
2018-Aug-18 02:00N 37°15' E 025°39'8 9.3
2018-Aug-18 01:10N 37°12' E 025°30'1 9.1
2018-Aug-18 01:00N 37°12' E 025°28'5 9.4
2018-Aug-18 00:29N 37°08' E 025°24'2 4.7
2018-Aug-18 00:00N 37°06' E 025°22'0 0.0
2018-Aug-17 23:30N 37°06' E 025°22'0 0.0
2018-Aug-17 23:00N 37°06' E 025°22'0 0.0
2018-Aug-17 22:30N 37°06' E 025°22'0 0.0
2018-Aug-17 22:00N 37°06' E 025°22'0 0.0
2018-Aug-17 21:30N 37°06' E 025°22'0 0.0
2018-Aug-17 21:00N 37°06' E 025°22'0 0.0
2018-Aug-17 20:30N 37°06' E 025°22'0 0.0
2018-Aug-17 20:00N 37°06' E 025°22'0 0.0
2018-Aug-17 19:30N 37°06' E 025°22'0 0.0
2018-Aug-17 18:58N 37°06' E 025°22'0 0.0
2018-Aug-17 18:30N 37°06' E 025°22'0 0.0
2018-Aug-17 18:00N 37°06' E 025°22'0 0.0
2018-Aug-17 17:30N 37°06' E 025°22'0 0.0
2018-Aug-17 17:00N 37°06' E 025°22'0 0.0
2018-Aug-17 16:30N 37°06' E 025°22'0 0.0
2018-Aug-17 16:00N 37°06' E 025°22'0 0.0
2018-Aug-17 15:30N 37°06' E 025°22'0 0.0
2018-Aug-17 15:00N 37°06' E 025°22'0 0.0
2018-Aug-17 14:31N 37°06' E 025°22'3 2.6
2018-Aug-17 13:30N 37°09' E 025°24'5 9.8
2018-Aug-17 13:00N 37°12' E 025°28'510.4
2018-Aug-17 12:30N 37°16' E 025°33'12 4.8
2018-Aug-17 10:06N 37°25' E 025°42'0 2.9
2018-Aug-17 10:00N 37°25' E 025°42'3 2.7
2018-Aug-17 08:51N 37°28' E 025°44'2 2.8
2018-Aug-17 08:18N 37°28' E 025°46'1 3.2
2018-Aug-17 07:55N 37°27' E 025°47'1 2.9
2018-Aug-17 07:31N 37°26' E 025°46'0 0.9
2018-Aug-17 06:58N 37°26' E 025°46'2 2.9
2018-Aug-17 06:13N 37°28' E 025°44'4 2.4
2018-Aug-17 04:36N 37°24' E 025°45'0 2.9
2018-Aug-17 04:26N 37°23' E 025°45'1 3.0
2018-Aug-17 04:00N 37°23' E 025°46'1 2.9
2018-Aug-17 03:30N 37°21' E 025°47'2 3.5
2018-Aug-17 03:00N 37°20' E 025°48'4 7.5
2018-Aug-17 02:30N 37°19' E 025°43'6 9.4
2018-Aug-17 01:55N 37°18' E 025°36'4 9.5
2018-Aug-17 01:30N 37°18' E 025°32'2 4.3
2018-Aug-17 01:00N 37°18' E 025°29'1 2.9
2018-Aug-17 00:30N 37°18' E 025°27'1 2.9
2018-Aug-17 00:00N 37°18' E 025°25'1 2.8
2018-Aug-16 23:30N 37°17' E 025°24'1 2.9
2018-Aug-16 23:00N 37°17' E 025°22'1 1.7
2018-Aug-16 22:30N 37°17' E 025°21'1 2.7
2018-Aug-16 22:00N 37°18' E 025°22'1 2.9
2018-Aug-16 21:30N 37°18' E 025°24'1 2.9
2018-Aug-16 21:01N 37°19' E 025°26'1 2.9
2018-Aug-16 20:30N 37°19' E 025°27'1 2.7
2018-Aug-16 20:01N 37°19' E 025°29'1 2.8
2018-Aug-16 19:30N 37°19' E 025°31'4 8.1
2018-Aug-16 19:00N 37°21' E 025°35'610.7
2018-Aug-16 18:24N 37°25' E 025°41'2 1.3
2018-Aug-16 16:27N 37°24' E 025°44'1 2.7
2018-Aug-16 15:59N 37°23' E 025°45'1 2.7
2018-Aug-16 15:30N 37°22' E 025°46'1 2.8
2018-Aug-16 15:00N 37°21' E 025°47'1 2.7
2018-Aug-16 14:30N 37°20' E 025°48'1 2.7
2018-Aug-16 14:00N 37°19' E 025°49'1 2.8
2018-Aug-16 13:30N 37°18' E 025°47'1 1.1
2018-Aug-16 13:00N 37°19' E 025°47'1 2.9
2018-Aug-16 12:30N 37°20' E 025°46'1 2.9
2018-Aug-16 12:00N 37°21' E 025°45'2 2.8
2018-Aug-16 11:28N 37°23' E 025°44'3 2.9
2018-Aug-16 10:31N 37°25' E 025°42'0 2.7
2018-Aug-16 10:30N 37°25' E 025°42'3 2.7
2018-Aug-16 09:21N 37°28' E 025°44'2 2.8
2018-Aug-16 08:44N 37°27' E 025°46'1 2.8
2018-Aug-16 08:28N 37°27' E 025°46'1 2.4
2018-Aug-16 07:59N 37°26' E 025°47'1 1.5
2018-Aug-16 07:30N 37°26' E 025°46'0 0.9
2018-Aug-16 07:00N 37°26' E 025°46'2 2.8
2018-Aug-16 06:19N 37°27' E 025°44'2 2.3
2018-Aug-16 05:21N 37°25' E 025°43'1 2.9
2018-Aug-16 04:56N 37°24' E 025°44'1 2.8
2018-Aug-16 04:30N 37°23' E 025°45'1 2.8
2018-Aug-16 04:00N 37°22' E 025°46'1 2.8
2018-Aug-16 03:30N 37°21' E 025°47'2 3.1
2018-Aug-16 03:00N 37°20' E 025°48'1 1.3
2018-Aug-16 02:30N 37°20' E 025°47'1 2.3
2018-Aug-16 02:00N 37°19' E 025°48'2 3.8
2018-Aug-16 01:30N 37°18' E 025°46'3 5.7
2018-Aug-16 01:00N 37°19' E 025°43'10 5.5
2018-Aug-15 23:15N 37°18' E 025°31'0 1.0
2018-Aug-15 23:00N 37°19' E 025°31'1 2.8
2018-Aug-15 22:30N 37°18' E 025°29'1 2.8
2018-Aug-15 22:00N 37°18' E 025°28'1 2.8
2018-Aug-15 21:30N 37°17' E 025°27'1 2.8
2018-Aug-15 21:00N 37°16' E 025°25'1 2.8
2018-Aug-15 20:31N 37°16' E 025°23'1 2.8
2018-Aug-15 20:00N 37°15' E 025°22'4 8.4
2018-Aug-15 19:30N 37°11' E 025°22'5 9.0
2018-Aug-15 19:00N 37°06' E 025°22'0 0.3
2018-Aug-15 18:30N 37°06' E 025°22'0 0.0
2018-Aug-15 18:00N 37°06' E 025°22'0 0.0
2018-Aug-15 17:30N 37°06' E 025°22'0 0.0
2018-Aug-15 17:00N 37°06' E 025°22'0 0.0
2018-Aug-15 16:30N 37°06' E 025°22'0 0.0
2018-Aug-15 16:00N 37°06' E 025°22'0 0.0
2018-Aug-15 15:30N 37°06' E 025°22'0 0.2
2018-Aug-15 15:00N 37°06' E 025°22'0 0.1
2018-Aug-15 14:30N 37°06' E 025°22'0 0.0
2018-Aug-15 14:00N 37°06' E 025°22'0 0.0
2018-Aug-15 13:30N 37°06' E 025°22'0 0.0
2018-Aug-15 13:00N 37°06' E 025°22'0 0.0
2018-Aug-15 12:30N 37°06' E 025°22'0 0.0
2018-Aug-15 12:00N 37°06' E 025°22'0 0.0
2018-Aug-15 11:30N 37°06' E 025°22'0 0.0
2018-Aug-15 11:00N 37°06' E 025°22'0 0.0
2018-Aug-15 10:29N 37°06' E 025°22'0 0.0
2018-Aug-15 10:00N 37°06' E 025°22'0 0.0
2018-Aug-15 09:30N 37°06' E 025°22'0 0.0
2018-Aug-15 09:00N 37°06' E 025°22'0 0.0
2018-Aug-15 08:30N 37°06' E 025°22'0 0.0
2018-Aug-15 08:00N 37°06' E 025°22'0 0.0
2018-Aug-15 07:30N 37°06' E 025°22'0 0.0
2018-Aug-15 07:00N 37°06' E 025°22'0 0.0
2018-Aug-15 06:29N 37°06' E 025°22'0 0.0
2018-Aug-15 06:00N 37°06' E 025°22'0 0.0
2018-Aug-15 05:30N 37°06' E 025°22'0 0.0
2018-Aug-15 05:00N 37°06' E 025°22'0 0.0
2018-Aug-15 04:30N 37°06' E 025°22'0 0.0
2018-Aug-15 04:00N 37°06' E 025°22'0 0.0
2018-Aug-15 03:30N 37°06' E 025°22'0 0.0
2018-Aug-15 03:00N 37°06' E 025°22'  

Dump ship's entire track history